createdAt,value
2017-08-21T00:00:34.987Z,998.38
2017-08-21T00:01:35.119Z,998.30
2017-08-21T00:02:35.479Z,998.40
2017-08-21T00:03:35.336Z,998.38
2017-08-21T00:04:35.383Z,998.41
2017-08-21T00:05:35.437Z,998.34
2017-08-21T00:06:35.479Z,998.32
2017-08-21T00:07:35.458Z,998.33
2017-08-21T00:08:34.992Z,998.35
2017-08-21T00:09:35.041Z,998.33
2017-08-21T00:10:34.600Z,998.31
2017-08-21T00:11:34.644Z,998.37
2017-08-21T00:12:34.710Z,998.31
2017-08-21T00:13:34.553Z,998.29
2017-08-21T00:14:34.992Z,998.30
2017-08-21T00:15:35.065Z,998.37
2017-08-21T00:16:35.014Z,998.28
2017-08-21T00:17:35.456Z,998.39
2017-08-21T00:18:35.406Z,998.35
2017-08-21T00:19:35.457Z,998.39
2017-08-21T00:20:35.476Z,998.33
2017-08-21T00:21:35.443Z,998.38
2017-08-21T00:22:35.496Z,998.40
2017-08-21T00:23:35.471Z,998.36
2017-08-21T00:24:35.011Z,998.36
2017-08-21T00:25:35.043Z,998.40
2017-08-21T00:26:35.081Z,998.42
2017-08-21T00:27:35.117Z,998.45
2017-08-21T00:28:34.656Z,998.39
2017-08-21T00:29:34.697Z,998.42
2017-08-21T00:30:34.659Z,998.40
2017-08-21T00:31:35.093Z,998.40
2017-08-21T00:32:35.067Z,998.42
2017-08-21T00:33:35.463Z,998.43
2017-08-21T00:34:35.202Z,998.42
2017-08-21T00:35:35.501Z,998.41
2017-08-21T00:36:35.548Z,998.40
2017-08-21T00:37:35.497Z,998.42
2017-08-21T00:38:35.468Z,998.41
2017-08-21T00:39:35.516Z,998.36
2017-08-21T00:40:35.061Z,998.42
2017-08-21T00:41:35.109Z,998.45
2017-08-21T00:42:35.093Z,998.38
2017-08-21T00:43:35.124Z,998.41
2017-08-21T00:44:35.173Z,998.44
2017-08-21T00:45:34.729Z,998.44
2017-08-21T00:46:34.680Z,998.46
2017-08-21T00:47:34.837Z,998.52
2017-08-21T00:48:34.704Z,998.46
2017-08-21T00:49:35.168Z,998.52
2017-08-21T00:50:35.510Z,998.43
2017-08-21T00:51:35.463Z,998.48
2017-08-21T00:52:35.600Z,998.41
2017-08-21T00:53:35.537Z,998.40
2017-08-21T00:54:35.582Z,998.42
2017-08-21T00:55:35.531Z,998.47
2017-08-21T00:56:35.567Z,998.43
2017-08-21T00:57:35.606Z,998.43
2017-08-21T00:58:35.154Z,998.50
2017-08-21T00:59:35.295Z,998.45
2017-08-21T01:02:33.085Z,998.49
2017-08-21T01:02:33.795Z,998.44
2017-08-21T01:02:34.703Z,998.49
2017-08-21T01:05:50.368Z,998.53
2017-08-21T01:05:50.976Z,998.44
2017-08-21T01:05:51.583Z,998.48
2017-08-21T01:08:36.296Z,998.48
2017-08-21T01:08:36.904Z,998.47
2017-08-21T01:08:37.511Z,998.48
2017-08-21T01:11:49.846Z,998.49
2017-08-21T01:11:50.454Z,998.44
2017-08-21T01:11:51.060Z,998.52
2017-08-21T01:14:34.640Z,998.56
2017-08-21T01:14:35.252Z,998.51
2017-08-21T01:14:35.859Z,998.54
2017-08-21T01:17:51.145Z,998.47
2017-08-21T01:17:51.753Z,998.49
2017-08-21T01:17:52.360Z,998.47
2017-08-21T01:21:10.432Z,998.47
2017-08-21T01:21:11.040Z,998.46
2017-08-21T01:21:11.649Z,998.45
2017-08-21T01:23:48.120Z,998.48
2017-08-21T01:23:48.728Z,998.38
2017-08-21T01:23:49.437Z,998.46
2017-08-21T01:26:34.537Z,998.45
2017-08-21T01:26:35.246Z,998.46
2017-08-21T01:26:35.854Z,998.38
2017-08-21T01:29:45.674Z,998.45
2017-08-21T01:29:46.281Z,998.45
2017-08-21T01:29:46.894Z,998.46
2017-08-21T01:32:34.130Z,998.44
2017-08-21T01:32:34.739Z,998.49
2017-08-21T01:32:35.346Z,998.48
2017-08-21T01:35:43.191Z,998.46
2017-08-21T01:35:43.800Z,998.45
2017-08-21T01:35:44.420Z,998.49
2017-08-21T01:38:21.378Z,998.47
2017-08-21T01:38:21.988Z,998.46
2017-08-21T01:38:34.822Z,998.50
2017-08-21T01:41:48.285Z,998.46
2017-08-21T01:41:48.894Z,998.51
2017-08-21T01:41:49.501Z,998.48
2017-08-21T01:44:21.650Z,998.50
2017-08-21T01:44:22.253Z,998.40
2017-08-21T01:44:34.990Z,998.48
2017-08-21T01:47:53.856Z,998.50
2017-08-21T01:47:54.467Z,998.44
2017-08-21T01:47:55.073Z,998.44
2017-08-21T01:50:42.060Z,998.50
2017-08-21T01:50:42.668Z,998.46
2017-08-21T01:50:43.275Z,998.43
2017-08-21T01:53:55.210Z,998.42
2017-08-21T01:53:55.813Z,998.50
2017-08-21T01:53:56.421Z,998.49
2017-08-21T01:56:38.419Z,998.49
2017-08-21T01:56:39.028Z,998.46
2017-08-21T01:56:39.635Z,998.49
2017-08-21T01:59:55.825Z,998.47
2017-08-21T01:59:56.432Z,998.61
2017-08-21T01:59:57.041Z,998.49
2017-08-21T02:00:34.950Z,998.51
2017-08-21T02:01:35.726Z,998.49
2017-08-21T02:02:35.776Z,998.57
2017-08-21T02:03:35.362Z,998.58
2017-08-21T02:04:35.320Z,998.47
2017-08-21T02:05:35.368Z,998.45
2017-08-21T02:06:34.907Z,998.53
2017-08-21T02:07:34.947Z,998.41
2017-08-21T02:08:34.913Z,998.53
2017-08-21T02:09:34.979Z,998.46
2017-08-21T02:10:35.016Z,998.54
2017-08-21T02:11:34.967Z,998.44
2017-08-21T02:12:35.437Z,998.44
2017-08-21T02:13:35.388Z,998.49
2017-08-21T02:14:35.737Z,998.51
2017-08-21T02:15:35.879Z,998.43
2017-08-21T02:16:35.823Z,998.46
2017-08-21T02:17:35.910Z,998.48
2017-08-21T02:18:35.866Z,998.42
2017-08-21T02:19:35.326Z,998.47
2017-08-21T02:20:35.871Z,998.47
2017-08-21T02:21:35.404Z,998.44
2017-08-21T02:22:35.465Z,998.35
2017-08-21T02:23:34.997Z,998.43
2017-08-21T02:24:34.929Z,998.36
2017-08-21T02:25:34.973Z,998.35
2017-08-21T02:26:36.315Z,998.35
2017-08-21T02:27:35.046Z,998.42
2017-08-21T02:28:35.384Z,998.32
2017-08-21T02:29:35.419Z,998.36
2017-08-21T02:30:35.466Z,998.39
2017-08-21T02:31:35.700Z,998.36
2017-08-21T02:32:35.944Z,998.35
2017-08-21T02:33:35.782Z,998.42
2017-08-21T02:34:35.824Z,998.34
2017-08-21T02:35:35.869Z,998.35
2017-08-21T02:36:35.908Z,998.36
2017-08-21T02:37:35.440Z,998.41
2017-08-21T02:38:35.477Z,998.39
2017-08-21T02:39:35.027Z,998.47
2017-08-21T02:40:35.071Z,998.45
2017-08-21T02:41:35.027Z,998.48
2017-08-21T02:42:35.070Z,998.46
2017-08-21T02:43:35.036Z,998.38
2017-08-21T02:44:35.475Z,998.38
2017-08-21T02:45:35.444Z,998.39
2017-08-21T02:46:35.491Z,998.35
2017-08-21T02:47:35.528Z,998.39
2017-08-21T02:48:35.871Z,998.44
2017-08-21T02:49:35.913Z,998.37
2017-08-21T02:50:35.877Z,998.41
2017-08-21T02:51:35.824Z,998.42
2017-08-21T02:52:36.011Z,998.37
2017-08-21T02:53:35.453Z,998.34
2017-08-21T02:54:35.610Z,998.41
2017-08-21T02:55:35.450Z,998.40
2017-08-21T02:56:35.095Z,998.33
2017-08-21T02:57:35.137Z,998.39
2017-08-21T02:58:35.072Z,998.44
2017-08-21T02:59:35.101Z,998.43
2017-08-21T03:00:35.043Z,998.39
2017-08-21T03:01:35.495Z,998.37
2017-08-21T03:02:35.569Z,998.38
2017-08-21T03:03:35.886Z,998.36
2017-08-21T03:04:35.750Z,998.37
2017-08-21T03:05:35.890Z,998.31
2017-08-21T03:06:35.956Z,998.37
2017-08-21T03:07:35.994Z,998.32
2017-08-21T03:08:36.039Z,998.32
2017-08-21T03:09:35.475Z,998.26
2017-08-21T03:10:35.544Z,998.27
2017-08-21T03:11:35.505Z,998.35
2017-08-21T03:12:35.563Z,998.31
2017-08-21T03:13:35.110Z,998.36
2017-08-21T03:14:35.149Z,998.33
2017-08-21T03:15:35.282Z,998.29
2017-08-21T03:16:35.215Z,998.26
2017-08-21T03:17:35.184Z,998.30
2017-08-21T03:18:35.521Z,998.30
2017-08-21T03:19:35.967Z,998.28
2017-08-21T03:20:35.962Z,998.35
2017-08-21T03:21:35.905Z,998.33
2017-08-21T03:22:35.944Z,998.38
2017-08-21T03:23:35.986Z,998.37
2017-08-21T03:24:36.255Z,998.35
2017-08-21T03:25:36.100Z,998.30
2017-08-21T03:26:35.568Z,998.28
2017-08-21T03:27:35.607Z,998.29
2017-08-21T03:28:35.566Z,998.35
2017-08-21T03:29:35.647Z,998.35
2017-08-21T03:30:35.812Z,998.34
2017-08-21T03:31:35.254Z,998.27
2017-08-21T03:32:35.190Z,998.23
2017-08-21T03:33:35.129Z,998.33
2017-08-21T03:34:35.662Z,998.27
2017-08-21T03:35:35.639Z,998.30
2017-08-21T03:36:35.978Z,998.30
2017-08-21T03:37:35.949Z,998.33
2017-08-21T03:38:35.990Z,998.29
2017-08-21T03:39:36.058Z,998.35
2017-08-21T03:40:36.217Z,998.31
2017-08-21T03:41:36.056Z,998.32
2017-08-21T03:42:35.608Z,998.35
2017-08-21T03:43:35.650Z,998.33
2017-08-21T03:44:35.584Z,998.31
2017-08-21T03:45:35.621Z,998.30
2017-08-21T03:46:35.265Z,998.31
2017-08-21T03:47:35.215Z,998.33
2017-08-21T03:48:00.179Z,998.33
2017-08-21T03:50:09.878Z,998.36
2017-08-21T03:50:10.489Z,998.40
2017-08-21T03:50:35.249Z,998.42
2017-08-21T03:51:35.687Z,998.42
2017-08-21T03:52:36.054Z,998.43
2017-08-21T03:53:36.094Z,998.41
2017-08-21T03:54:36.131Z,998.38
2017-08-21T03:55:36.096Z,998.39
2017-08-21T03:56:36.143Z,998.49
2017-08-21T03:57:36.123Z,998.51
2017-08-21T03:58:36.082Z,998.48
2017-08-21T03:59:35.632Z,998.47
2017-08-21T04:00:36.193Z,998.54
2017-08-21T04:01:35.754Z,998.53
2017-08-21T04:02:35.747Z,998.58
2017-08-21T04:03:35.292Z,998.57
2017-08-21T04:04:35.249Z,998.51
2017-08-21T04:05:35.315Z,998.57
2017-08-21T04:06:35.259Z,998.63
2017-08-21T04:07:35.735Z,998.62
2017-08-21T04:08:35.687Z,998.60
2017-08-21T04:09:36.138Z,998.57
2017-08-21T04:10:36.107Z,998.57
2017-08-21T04:11:36.148Z,998.56
2017-08-21T04:12:36.112Z,998.69
2017-08-21T04:13:36.083Z,998.57
2017-08-21T04:14:36.128Z,998.59
2017-08-21T04:15:36.178Z,998.60
2017-08-21T04:16:35.750Z,998.62
2017-08-21T04:17:35.701Z,998.64
2017-08-21T04:18:35.292Z,998.63
2017-08-21T04:19:35.327Z,998.61
2017-08-21T04:20:35.382Z,998.64
2017-08-21T04:21:35.335Z,998.67
2017-08-21T04:22:35.278Z,998.67
2017-08-21T04:23:35.757Z,998.70
2017-08-21T04:24:35.818Z,998.71
2017-08-21T04:25:40.901Z,998.65
2017-08-21T04:26:35.346Z,998.77
2017-08-21T04:27:36.200Z,998.76
2017-08-21T04:28:36.152Z,998.72
2017-08-21T04:29:36.199Z,998.72
2017-08-21T04:30:36.183Z,998.73
2017-08-21T04:31:36.194Z,998.73
2017-08-21T04:32:35.768Z,998.80
2017-08-21T04:33:35.763Z,998.77
2017-08-21T04:34:35.744Z,998.71
2017-08-21T04:35:35.323Z,998.72
2017-08-21T04:36:35.395Z,998.79
2017-08-21T04:37:35.469Z,998.75
2017-08-21T04:38:35.427Z,998.80
2017-08-21T04:39:35.412Z,998.72
2017-08-21T04:40:35.839Z,998.81
2017-08-21T04:41:35.835Z,998.78
2017-08-21T04:42:36.189Z,998.75
2017-08-21T04:43:36.242Z,998.70
2017-08-21T04:44:36.232Z,998.80
2017-08-21T04:45:36.215Z,998.75
2017-08-21T04:46:36.245Z,998.79
2017-08-21T04:47:36.241Z,998.73
2017-08-21T04:48:35.801Z,998.79
2017-08-21T04:49:35.849Z,998.86
2017-08-21T04:50:35.838Z,998.81
2017-08-21T04:51:35.905Z,998.78
2017-08-21T04:52:35.414Z,998.79
2017-08-21T04:53:35.451Z,998.89
2017-08-21T04:54:35.451Z,998.81
2017-08-21T04:55:35.383Z,998.79
2017-08-21T04:56:35.892Z,998.80
2017-08-21T04:57:35.878Z,998.78
2017-08-21T04:58:35.881Z,998.82
2017-08-21T04:59:36.321Z,998.80
2017-08-21T05:00:36.278Z,998.81
2017-08-21T05:01:36.367Z,998.85
2017-08-21T05:02:36.273Z,998.83
2017-08-21T05:03:36.195Z,998.85
2017-08-21T05:04:36.267Z,998.83
2017-08-21T05:05:35.846Z,998.86
2017-08-21T05:06:36.007Z,998.83
2017-08-21T05:07:35.870Z,998.86
2017-08-21T05:08:35.875Z,998.84
2017-08-21T05:09:35.462Z,998.85
2017-08-21T05:10:35.477Z,998.83
2017-08-21T05:11:35.502Z,998.84
2017-08-21T05:12:35.449Z,998.81
2017-08-21T05:13:35.869Z,998.82
2017-08-21T05:14:35.859Z,998.82
2017-08-21T05:15:36.126Z,998.81
2017-08-21T05:16:36.313Z,998.79
2017-08-21T05:17:36.374Z,998.89
2017-08-21T05:18:36.245Z,998.81
2017-08-21T05:19:36.268Z,998.88
2017-08-21T05:20:36.307Z,998.73
2017-08-21T05:21:36.316Z,998.92
2017-08-21T05:22:35.913Z,998.77
2017-08-21T05:23:35.901Z,998.86
2017-08-21T05:24:35.938Z,998.82
2017-08-21T05:25:36.025Z,998.85
2017-08-21T05:26:35.558Z,998.88
2017-08-21T05:27:35.492Z,998.89
2017-08-21T05:28:35.498Z,998.81
2017-08-21T05:29:35.462Z,998.82
2017-08-21T05:30:35.901Z,998.85
2017-08-21T05:31:35.915Z,998.80
2017-08-21T05:32:35.969Z,998.81
2017-08-21T05:33:36.065Z,998.85
2017-08-21T05:34:36.332Z,998.89
2017-08-21T05:35:36.318Z,998.90
2017-08-21T05:36:36.351Z,998.94
2017-08-21T05:37:36.337Z,998.88
2017-08-21T05:38:36.372Z,998.85
2017-08-21T05:39:35.948Z,998.95
2017-08-21T05:40:35.934Z,998.90
2017-08-21T05:41:35.932Z,998.86
2017-08-21T05:42:35.564Z,998.92
2017-08-21T05:43:36.083Z,998.91
2017-08-21T05:44:35.655Z,998.93
2017-08-21T05:45:35.534Z,998.91
2017-08-21T05:46:40.982Z,998.78
2017-08-21T05:47:35.611Z,998.83
2017-08-21T05:48:36.016Z,998.84
2017-08-21T05:49:36.369Z,998.77
2017-08-21T05:50:36.365Z,998.90
2017-08-21T05:51:36.408Z,998.89
2017-08-21T05:52:36.368Z,998.78
2017-08-21T05:53:36.361Z,998.80
2017-08-21T05:54:36.452Z,998.79
2017-08-21T05:55:36.403Z,998.81
2017-08-21T05:56:36.031Z,998.76
2017-08-21T05:57:36.762Z,998.76
2017-08-21T05:58:35.974Z,998.79
2017-08-21T05:59:35.582Z,998.78
2017-08-21T06:00:35.626Z,998.73
2017-08-21T06:01:35.579Z,998.86
2017-08-21T06:02:35.641Z,998.82
2017-08-21T06:03:35.554Z,998.78
2017-08-21T06:04:36.064Z,998.76
2017-08-21T06:05:36.066Z,998.71
2017-08-21T06:06:36.424Z,998.80
2017-08-21T07:05:02.621Z,998.88
2017-08-21T07:05:34.320Z,998.91
2017-08-21T07:06:27.153Z,998.84
2017-08-21T07:07:19.406Z,998.85
2017-08-21T07:07:57.049Z,998.88
2017-08-21T07:09:19.922Z,998.88
2017-08-21T07:09:57.367Z,998.81
2017-08-21T07:10:56.210Z,998.81
2017-08-21T07:12:17.028Z,998.93
2017-08-21T07:13:16.989Z,998.90
2017-08-21T07:13:56.164Z,998.86
2017-08-21T07:14:56.191Z,998.79
2017-08-21T07:16:16.877Z,998.88
2017-08-21T07:17:16.880Z,998.90
2017-08-21T07:17:56.266Z,998.83
2017-08-21T07:18:56.174Z,998.77
2017-08-21T07:20:16.921Z,998.83
2017-08-21T07:21:16.905Z,998.84
2017-08-21T07:21:56.136Z,998.87
2017-08-21T07:22:56.218Z,998.78
2017-08-21T07:24:17.029Z,998.91
2017-08-21T07:25:16.982Z,998.82
2017-08-21T07:25:56.238Z,998.86
2017-08-21T07:26:56.193Z,998.86
2017-08-21T07:28:17.107Z,998.85
2017-08-21T07:29:16.993Z,998.86
2017-08-21T07:29:56.237Z,998.89
2017-08-21T07:30:56.213Z,998.91
2017-08-21T07:32:17.162Z,998.91
2017-08-21T07:33:17.139Z,998.87
2017-08-21T07:33:56.232Z,998.91
2017-08-21T07:34:56.259Z,998.88
2017-08-21T07:36:16.936Z,998.85
2017-08-21T07:37:17.050Z,998.84
2017-08-21T07:37:56.346Z,998.91
2017-08-21T07:38:56.237Z,998.98
2017-08-21T07:40:17.040Z,998.92
2017-08-21T07:41:17.138Z,998.88
2017-08-21T07:41:56.271Z,998.95
2017-08-21T07:42:56.296Z,998.92
2017-08-21T07:44:17.201Z,998.89
2017-08-21T07:45:17.189Z,998.88
2017-08-21T07:45:56.220Z,998.85
2017-08-21T07:46:56.316Z,998.92
2017-08-21T07:48:17.150Z,998.97
2017-08-21T07:49:17.216Z,998.92
2017-08-21T07:49:56.318Z,998.92
2017-08-21T07:50:56.368Z,999.03
2017-08-21T07:52:17.267Z,998.92
2017-08-21T07:53:17.123Z,998.96
2017-08-21T07:53:56.357Z,998.89
2017-08-21T07:54:56.292Z,998.94
2017-08-21T07:56:17.189Z,998.93
2017-08-21T07:57:17.278Z,998.92
2017-08-21T07:57:56.372Z,998.96
2017-08-21T07:58:56.223Z,998.97
2017-08-21T08:00:17.085Z,998.95
2017-08-21T08:01:17.134Z,998.94
2017-08-21T08:01:56.392Z,998.85
2017-08-21T08:02:56.357Z,998.98
2017-08-21T08:04:16.947Z,998.95
2017-08-21T08:05:17.010Z,998.97
2017-08-21T08:05:56.353Z,998.98
2017-08-21T08:06:56.362Z,998.97
2017-08-21T08:08:17.237Z,998.95
2017-08-21T08:09:17.284Z,998.99
2017-08-21T08:09:56.394Z,999.01
2017-08-21T08:10:56.386Z,998.98
2017-08-21T08:12:17.114Z,998.95
2017-08-21T08:13:17.131Z,998.86
2017-08-21T08:13:56.289Z,998.99
2017-08-21T08:14:56.373Z,999.01
2017-08-21T08:16:17.140Z,999.07
2017-08-21T08:17:17.115Z,999.01
2017-08-21T08:17:56.443Z,998.93
2017-08-21T08:18:56.316Z,998.82
2017-08-21T08:20:17.172Z,998.97
2017-08-21T08:21:17.071Z,998.92
2017-08-21T08:21:56.333Z,998.97
2017-08-21T08:22:56.414Z,999.00
2017-08-21T08:24:17.066Z,998.98
2017-08-21T08:25:17.067Z,999.01
2017-08-21T08:25:56.308Z,998.95
2017-08-21T08:26:56.402Z,998.93
2017-08-21T08:28:17.297Z,998.90
2017-08-21T08:29:17.189Z,998.86
2017-08-21T08:29:56.293Z,998.83
2017-08-21T08:31:17.154Z,998.90
2017-08-21T08:32:17.146Z,998.89
2017-08-21T08:32:56.496Z,998.92
2017-08-21T08:33:56.408Z,998.97
2017-08-21T08:35:17.150Z,998.96
2017-08-21T08:36:17.154Z,998.88
2017-08-21T08:36:56.431Z,998.88
2017-08-21T08:37:56.454Z,998.89
2017-08-21T08:39:17.193Z,998.87
2017-08-21T08:40:17.126Z,998.84
2017-08-21T08:40:56.466Z,998.80
2017-08-21T08:41:56.376Z,998.81
2017-08-21T08:43:17.301Z,998.88
2017-08-21T08:44:17.157Z,998.76
2017-08-21T08:44:56.404Z,998.89
2017-08-21T08:45:56.433Z,998.79
2017-08-21T08:47:17.155Z,998.86
2017-08-21T08:48:17.295Z,998.84
2017-08-21T08:48:56.381Z,998.84
2017-08-21T08:49:56.415Z,998.77
2017-08-21T08:51:17.137Z,998.80
2017-08-21T08:52:17.169Z,998.81
2017-08-21T08:52:56.447Z,998.83
2017-08-21T08:53:56.454Z,998.81
2017-08-21T08:55:17.231Z,998.71
2017-08-21T08:55:56.404Z,998.73
2017-08-21T08:56:56.440Z,998.84
2017-08-21T08:58:17.227Z,998.71
2017-08-21T08:59:17.371Z,998.74
2017-08-21T08:59:56.436Z,998.76
2017-08-21T09:00:56.472Z,998.77
2017-08-21T09:02:17.293Z,998.80
2017-08-21T09:03:17.302Z,998.74
2017-08-21T09:03:56.561Z,998.75
2017-08-21T09:05:17.233Z,998.74
2017-08-21T09:06:17.395Z,998.72
2017-08-21T09:06:56.581Z,998.68
2017-08-21T09:07:56.479Z,998.68
2017-08-21T09:09:17.143Z,998.71
2017-08-21T09:10:17.315Z,998.67
2017-08-21T09:10:56.513Z,998.63
2017-08-21T09:11:56.562Z,998.73
2017-08-21T09:13:17.478Z,998.74
2017-08-21T09:14:17.415Z,998.84
2017-08-21T09:14:56.536Z,998.74
2017-08-21T09:15:56.533Z,998.77
2017-08-21T09:17:17.376Z,998.68
2017-08-21T09:18:17.271Z,998.81
2017-08-21T09:18:56.545Z,998.70
2017-08-21T09:19:56.547Z,998.76
2017-08-21T09:21:17.305Z,998.79
2017-08-21T09:22:17.316Z,998.73
2017-08-21T09:22:56.580Z,998.77
2017-08-21T09:23:56.502Z,998.76
2017-08-21T09:25:17.304Z,998.68
2017-08-21T09:26:17.347Z,998.68
2017-08-21T09:26:56.527Z,998.76
2017-08-21T09:27:56.574Z,998.72
2017-08-21T09:29:17.290Z,998.68
2017-08-21T09:30:17.373Z,998.70
2017-08-21T09:30:56.575Z,998.68
2017-08-21T09:31:56.532Z,998.63
2017-08-21T09:33:17.368Z,998.60
2017-08-21T09:34:17.331Z,998.61
2017-08-21T09:34:56.522Z,998.63
2017-08-21T09:35:56.655Z,998.63
2017-08-21T09:37:17.328Z,998.69
2017-08-21T09:38:17.432Z,998.70
2017-08-21T09:38:56.586Z,998.68
2017-08-21T09:39:56.593Z,998.72
2017-08-21T09:41:17.339Z,998.66
2017-08-21T09:42:17.333Z,998.66
2017-08-21T09:42:56.683Z,998.66
2017-08-21T09:43:56.642Z,998.60
2017-08-21T09:45:17.343Z,998.64
2017-08-21T09:46:17.491Z,998.53
2017-08-21T09:46:56.566Z,998.56
2017-08-21T09:47:56.649Z,998.63
2017-08-21T09:49:17.418Z,998.70
2017-08-21T09:50:17.406Z,998.67
2017-08-21T09:50:56.577Z,998.69
2017-08-21T09:51:56.626Z,998.76
2017-08-21T09:53:17.367Z,998.60
2017-08-21T09:54:17.391Z,998.64
2017-08-21T09:54:56.622Z,998.74
2017-08-21T09:55:56.568Z,998.70
2017-08-21T09:57:17.456Z,998.76
2017-08-21T09:58:17.497Z,998.61
2017-08-21T09:58:56.676Z,998.65
2017-08-21T09:59:56.670Z,998.56
2017-08-21T10:01:17.579Z,998.63
2017-08-21T10:02:17.479Z,998.56
2017-08-21T10:02:56.648Z,998.46
2017-08-21T10:03:54.922Z,998.46
2017-08-21T10:04:46.961Z,998.69
2017-08-21T10:05:18.139Z,998.50
2017-08-21T10:06:17.503Z,998.54
2017-08-21T10:07:17.421Z,998.62
2017-08-21T10:07:56.747Z,998.54
2017-08-21T10:08:56.599Z,998.55
2017-08-21T10:10:17.813Z,998.65
2017-08-21T10:11:17.487Z,998.63
2017-08-21T10:11:56.651Z,998.59
2017-08-21T10:13:17.467Z,998.61
2017-08-21T10:14:17.460Z,998.74
2017-08-21T10:14:56.644Z,998.72
2017-08-21T10:15:56.655Z,998.70
2017-08-21T10:17:17.460Z,998.67
2017-08-21T10:18:17.497Z,998.75
2017-08-21T10:18:56.689Z,998.74
2017-08-21T10:19:56.746Z,998.67
2017-08-21T10:21:17.495Z,998.74
2017-08-21T10:21:56.735Z,998.77
2017-08-21T10:22:56.745Z,998.69
2017-08-21T10:24:17.590Z,998.71
2017-08-21T10:25:17.470Z,998.76
2017-08-21T10:25:56.680Z,998.60
2017-08-21T10:26:55.134Z,998.60
2017-08-21T10:27:47.133Z,998.57
2017-08-21T10:28:18.280Z,998.60
2017-08-21T10:29:17.438Z,998.59
2017-08-21T10:30:17.513Z,998.55
2017-08-21T10:30:56.757Z,998.54
2017-08-21T10:31:56.756Z,998.60
2017-08-21T10:33:17.446Z,998.58
2017-08-21T10:34:17.489Z,998.56
2017-08-21T10:34:56.779Z,998.53
2017-08-21T10:35:56.736Z,998.48
2017-08-21T10:37:17.428Z,998.49
2017-08-21T10:38:17.672Z,998.49
2017-08-21T10:38:56.760Z,998.63
2017-08-21T10:39:56.798Z,998.47
2017-08-21T10:41:17.625Z,998.50
2017-08-21T10:42:17.552Z,998.48
2017-08-21T10:42:56.754Z,998.45
2017-08-21T10:43:56.809Z,998.44
2017-08-21T10:45:17.647Z,998.52
2017-08-21T10:45:55.149Z,998.52
2017-08-21T10:46:47.139Z,998.51
2017-08-21T10:48:06.185Z,998.51
2017-08-21T10:49:17.551Z,998.44
2017-08-21T10:50:17.666Z,998.49
2017-08-21T10:50:56.751Z,998.46
2017-08-21T10:51:56.791Z,998.39
2017-08-21T10:53:17.696Z,998.41
2017-08-21T10:54:17.540Z,998.41
2017-08-21T10:54:56.929Z,998.40
2017-08-21T10:55:56.764Z,998.43
2017-08-21T10:57:17.556Z,998.40
2017-08-21T10:58:17.579Z,998.31
2017-08-21T10:58:56.970Z,998.28
2017-08-21T10:59:56.868Z,998.34
2017-08-21T11:01:17.645Z,998.31
2017-08-21T11:02:17.551Z,998.40
2017-08-21T11:02:56.805Z,998.34
2017-08-21T11:04:17.665Z,998.40
2017-08-21T11:05:17.450Z,998.35
2017-08-21T11:05:56.853Z,998.39
2017-08-21T11:06:56.848Z,998.36
2017-08-21T11:08:17.650Z,998.37
2017-08-21T11:09:17.647Z,998.40
2017-08-21T11:09:56.903Z,998.45
2017-08-21T11:10:56.828Z,998.37
2017-08-21T11:12:17.572Z,998.41
2017-08-21T11:13:17.671Z,998.39
2017-08-21T11:13:56.902Z,998.36
2017-08-21T11:14:56.918Z,998.31
2017-08-21T11:16:17.550Z,998.38
2017-08-21T11:17:17.739Z,998.40
2017-08-21T11:17:56.871Z,998.35
2017-08-21T11:18:56.939Z,998.40
2017-08-21T11:20:17.700Z,998.45
2017-08-21T11:21:17.686Z,998.46
2017-08-21T11:21:56.939Z,998.37
2017-08-21T11:22:56.905Z,998.41
2017-08-21T11:24:17.692Z,998.33
2017-08-21T11:25:17.789Z,998.43
2017-08-21T11:25:56.846Z,998.26
2017-08-21T11:26:56.838Z,998.27
2017-08-21T11:28:17.579Z,998.33
2017-08-21T11:29:17.718Z,998.28
2017-08-21T11:29:56.881Z,998.29
2017-08-21T11:30:56.944Z,998.24
2017-08-21T11:32:17.659Z,998.21
2017-08-21T11:33:17.618Z,998.19
2017-08-21T11:33:56.912Z,998.17
2017-08-21T11:34:56.851Z,998.18
2017-08-21T11:36:17.706Z,998.25
2017-08-21T11:37:17.618Z,998.22
2017-08-21T11:37:56.900Z,998.21
2017-08-21T11:38:56.928Z,998.28
2017-08-21T11:40:17.778Z,998.22
2017-08-21T11:41:17.642Z,998.29
2017-08-21T11:41:56.932Z,998.22
2017-08-21T11:42:56.936Z,998.18
2017-08-21T11:44:17.793Z,998.20
2017-08-21T11:45:17.835Z,998.20
2017-08-21T11:45:56.931Z,998.13
2017-08-21T11:46:56.950Z,998.10
2017-08-21T11:48:17.714Z,998.10
2017-08-21T11:49:17.732Z,998.09
2017-08-21T11:49:57.114Z,998.03
2017-08-21T11:50:56.905Z,998.10
2017-08-21T11:52:17.809Z,998.07
2017-08-21T11:53:17.657Z,998.16
2017-08-21T11:53:56.924Z,998.19
2017-08-21T11:55:17.934Z,998.15
2017-08-21T11:56:17.708Z,998.17
2017-08-21T11:56:56.933Z,998.06
2017-08-21T11:57:56.993Z,998.09
2017-08-21T11:59:17.658Z,998.06
2017-08-21T12:00:17.843Z,998.09
2017-08-21T12:00:57.029Z,998.05
2017-08-21T12:01:57.012Z,998.05
2017-08-21T12:03:17.944Z,998.04
2017-08-21T12:03:56.941Z,998.04
2017-08-21T12:04:57.019Z,998.03
2017-08-21T12:06:17.720Z,998.03
2017-08-21T12:06:55.372Z,998.03
2017-08-21T12:07:47.303Z,998.11
2017-08-21T12:09:06.814Z,998.08
2017-08-21T12:10:17.741Z,998.03
2017-08-21T12:11:17.756Z,998.10
2017-08-21T12:11:57.064Z,998.01
2017-08-21T12:12:57.002Z,997.99
2017-08-21T12:14:17.908Z,997.94
2017-08-21T12:15:17.858Z,997.92
2017-08-21T12:15:57.088Z,997.84
2017-08-21T12:16:57.065Z,997.91
2017-08-21T12:18:17.817Z,997.89
2017-08-21T12:19:17.912Z,997.98
2017-08-21T12:19:56.968Z,997.78
2017-08-21T12:20:57.049Z,997.85
2017-08-21T12:22:17.758Z,997.89
2017-08-21T12:23:17.825Z,997.89
2017-08-21T12:23:57.179Z,997.92
2017-08-21T12:24:57.056Z,997.93
2017-08-21T12:26:17.795Z,997.93
2017-08-21T12:27:17.726Z,997.95
2017-08-21T12:27:57.068Z,997.91
2017-08-21T12:28:57.138Z,997.90
2017-08-21T12:30:17.774Z,997.98
2017-08-21T12:31:17.836Z,998.02
2017-08-21T12:31:57.072Z,997.96
2017-08-21T12:32:57.136Z,997.95
2017-08-21T12:34:17.929Z,997.94
2017-08-21T12:35:17.828Z,997.94
2017-08-21T12:35:57.182Z,997.89
2017-08-21T12:36:57.082Z,997.95
2017-08-21T12:38:17.795Z,997.79
2017-08-21T12:39:17.881Z,997.81
2017-08-21T12:39:57.131Z,997.80
2017-08-21T12:40:57.038Z,997.83
2017-08-21T12:42:17.969Z,997.87
2017-08-21T12:43:17.986Z,997.89
2017-08-21T12:43:57.250Z,997.87
2017-08-21T12:44:57.167Z,997.80
2017-08-21T12:46:17.946Z,997.88
2017-08-21T12:47:17.878Z,997.88
2017-08-21T12:47:57.063Z,997.83
2017-08-21T12:48:57.089Z,997.88
2017-08-21T12:50:17.970Z,997.79
2017-08-21T12:51:17.890Z,997.87
2017-08-21T12:51:57.068Z,997.83
2017-08-21T12:52:57.180Z,997.84
2017-08-21T12:54:17.843Z,997.85
2017-08-21T12:55:17.958Z,997.79
2017-08-21T12:55:57.091Z,997.78
2017-08-21T12:56:57.125Z,997.80
2017-08-21T12:58:17.823Z,997.77
2017-08-21T12:59:18.009Z,997.79
2017-08-21T12:59:57.145Z,997.77
2017-08-21T13:00:58.045Z,997.89
2017-08-21T13:02:17.986Z,997.82
2017-08-21T13:03:17.828Z,997.75
2017-08-21T13:03:57.239Z,997.76
2017-08-21T13:04:57.358Z,997.72
2017-08-21T13:06:18.008Z,997.77
2017-08-21T13:07:17.990Z,997.74
2017-08-21T13:07:57.241Z,997.68
2017-08-21T13:08:57.169Z,997.71
2017-08-21T13:10:18.080Z,997.72
2017-08-21T13:11:17.952Z,997.70
2017-08-21T13:11:57.206Z,997.71
2017-08-21T13:12:57.194Z,997.70
2017-08-21T13:14:17.985Z,997.67
2017-08-21T13:15:17.996Z,997.68
2017-08-21T13:15:57.257Z,997.59
2017-08-21T13:16:57.445Z,997.65
2017-08-21T13:18:17.979Z,997.70
2017-08-21T13:19:17.920Z,997.68
2017-08-21T13:19:57.204Z,997.64
2017-08-21T13:20:57.147Z,997.63
2017-08-21T13:22:17.954Z,997.61